South Brent, United Kingdom
Current Conditions -  °F | °C
As of 9:20 AM on Wednesday 22 Oct 2014 (Local Time) from EGTE Reporting Station
Scattered Clouds Scattered Clouds  
Wind Chill: 46°   Ceiling: Unl
Heat Index: 46°   Visibility: 6mi
Dew Point: 45°   Wind: 1mph
Humidity: 93%   Direction: NA
Pressure: 30.36"   Gusts: NA
Location:  50.43°N, 3.83°W
Report Text: EGTE 220820Z VRB01KT 9999 SCT035 08/07 Q1028
Loading
Personal Weather Stations






























Interactive Weather Map
Tropical Storm Tracking
New forecast layout! Learn more

10-Day Weather Forecast

Advertisements
Track Severe Weather on mobile